createdAt,value
2022-12-25T00:01:08.096Z,9.39
2022-12-25T00:03:36.998Z,9.34
2022-12-25T00:06:04.305Z,9.41
2022-12-25T00:08:31.761Z,9.43
2022-12-25T00:11:00.789Z,9.46
2022-12-25T00:13:29.003Z,9.51
2022-12-25T00:15:56.455Z,9.46
2022-12-25T00:18:25.534Z,9.42
2022-12-25T00:21:00.117Z,9.45
2022-12-25T00:23:27.883Z,9.48
2022-12-25T00:25:55.036Z,9.48
2022-12-25T00:28:23.959Z,9.52
2022-12-25T00:35:00.229Z,9.48
2022-12-25T00:37:27.019Z,9.49
2022-12-25T00:39:54.135Z,9.48
2022-12-25T00:42:20.975Z,9.49
2022-12-25T00:44:49.299Z,9.47
2022-12-25T00:51:54.286Z,9.52
2022-12-25T00:54:22.056Z,9.51
2022-12-25T00:56:49.073Z,9.57
2022-12-25T00:59:16.390Z,9.59
2022-12-25T01:01:44.017Z,9.64
2022-12-25T01:04:12.603Z,9.59
2022-12-25T01:06:40.279Z,9.55
2022-12-25T01:09:09.270Z,9.53
2022-12-25T01:11:36.485Z,9.53
2022-12-25T01:14:03.672Z,9.61
2022-12-25T01:16:30.892Z,9.66
2022-12-25T01:18:58.016Z,9.53
2022-12-25T01:21:26.771Z,9.59
2022-12-25T01:23:54.238Z,9.66
2022-12-25T01:26:25.508Z,9.71
2022-12-25T01:28:52.758Z,9.72
2022-12-25T01:31:23.027Z,9.79
2022-12-25T01:33:50.285Z,9.86
2022-12-25T01:36:21.927Z,9.92
2022-12-25T01:38:50.541Z,9.99
2022-12-25T01:41:21.012Z,10.02
2022-12-25T01:44:06.945Z,9.93
2022-12-25T01:46:36.398Z,9.76
2022-12-25T01:49:09.544Z,9.88
2022-12-25T01:51:43.565Z,9.95
2022-12-25T01:54:18.073Z,9.86
2022-12-25T01:56:51.496Z,9.89
2022-12-25T01:59:25.619Z,9.95
2022-12-25T02:01:56.384Z,9.97
2022-12-25T02:04:28.093Z,10.04
2022-12-25T02:06:55.029Z,10.07
2022-12-25T02:09:21.845Z,10.09
2022-12-25T02:11:48.679Z,10.11
2022-12-25T02:14:16.110Z,10.11
2022-12-25T02:16:57.691Z,10.12
2022-12-25T02:19:48.288Z,10.07
2022-12-25T02:22:33.270Z,10.07
2022-12-25T02:25:29.898Z,10.06
2022-12-25T02:28:13.699Z,10.07
2022-12-25T02:30:46.108Z,10.06
2022-12-25T02:33:20.911Z,10.10
2022-12-25T02:35:55.475Z,10.08
2022-12-25T02:38:33.136Z,10.11
2022-12-25T02:41:09.941Z,9.98
2022-12-25T02:43:43.282Z,10.02
2022-12-25T02:46:16.642Z,10.04
2022-12-25T02:48:49.565Z,9.81
2022-12-25T02:51:22.737Z,9.80
2022-12-25T02:53:55.658Z,9.74
2022-12-25T02:56:25.147Z,9.74
2022-12-25T02:58:53.943Z,9.80
2022-12-25T03:01:28.304Z,9.84
2022-12-25T03:04:01.723Z,9.91
2022-12-25T03:06:32.638Z,9.80
2022-12-25T03:09:04.919Z,9.75
2022-12-25T03:11:33.009Z,9.61
2022-12-25T03:14:05.816Z,9.50
2022-12-25T03:16:32.962Z,9.55
2022-12-25T03:19:00.352Z,9.56
2022-12-25T03:21:27.153Z,9.38
2022-12-25T03:24:01.350Z,9.36
2022-12-25T03:26:29.927Z,9.38
2022-12-25T03:28:56.918Z,9.35
2022-12-25T03:31:39.785Z,9.31
2022-12-25T03:34:35.474Z,9.38
2022-12-25T03:37:24.475Z,9.41
2022-12-25T03:40:03.740Z,9.42
2022-12-25T03:42:49.455Z,9.38
2022-12-25T03:45:26.474Z,9.37
2022-12-25T03:47:57.744Z,9.33
2022-12-25T03:50:34.429Z,9.32
2022-12-25T03:53:06.043Z,9.31
2022-12-25T03:55:36.012Z,9.35
2022-12-25T03:58:03.041Z,9.34
2022-12-25T04:00:30.327Z,9.35
2022-12-25T04:02:58.544Z,9.37
2022-12-25T04:05:25.335Z,9.37
2022-12-25T04:07:53.220Z,9.39
2022-12-25T04:10:20.189Z,9.38
2022-12-25T04:12:46.941Z,9.41
2022-12-25T04:15:13.986Z,9.38
2022-12-25T04:17:40.787Z,9.29
2022-12-25T04:20:10.365Z,9.33
2022-12-25T04:22:37.156Z,9.26
2022-12-25T04:25:04.642Z,9.28
2022-12-25T04:27:31.521Z,9.27
2022-12-25T04:29:58.386Z,9.30
2022-12-25T04:32:25.588Z,9.33
2022-12-25T04:34:52.633Z,9.27
2022-12-25T04:37:21.111Z,9.31
2022-12-25T04:39:48.097Z,9.31
2022-12-25T04:42:15.948Z,9.26
2022-12-25T04:44:42.744Z,9.24
2022-12-25T04:47:11.753Z,9.24
2022-12-25T04:49:39.223Z,9.22
2022-12-25T04:52:06.338Z,9.24
2022-12-25T04:54:34.681Z,9.24
2022-12-25T04:57:01.492Z,9.24
2022-12-25T04:59:28.347Z,9.33
2022-12-25T05:01:55.349Z,9.34
2022-12-25T05:04:22.328Z,9.26
2022-12-25T05:06:49.395Z,9.26
2022-12-25T05:09:16.354Z,9.31
2022-12-25T05:11:45.072Z,9.33
2022-12-25T05:14:11.834Z,9.34
2022-12-25T05:16:38.921Z,9.40
2022-12-25T05:19:05.687Z,9.47
2022-12-25T05:21:32.794Z,9.55
2022-12-25T05:23:59.593Z,9.66
2022-12-25T05:26:27.522Z,9.71
2022-12-25T05:28:56.264Z,9.75
2022-12-25T05:31:23.509Z,9.72
2022-12-25T05:33:51.079Z,9.69
2022-12-25T05:36:18.267Z,9.69
2022-12-25T05:38:45.200Z,9.69
2022-12-25T05:41:12.291Z,9.59
2022-12-25T05:43:39.149Z,9.58
2022-12-25T05:46:10.223Z,9.45
2022-12-25T05:48:38.482Z,9.48
2022-12-25T05:51:07.507Z,9.38
2022-12-25T05:53:35.683Z,9.31
2022-12-25T05:56:04.743Z,9.24
2022-12-25T05:58:33.849Z,9.26
2022-12-25T06:01:00.942Z,9.24
2022-12-25T06:03:29.683Z,9.33
2022-12-25T06:05:56.839Z,9.26
2022-12-25T06:08:23.683Z,9.15
2022-12-25T06:10:52.892Z,9.12
2022-12-25T06:13:19.719Z,9.10
2022-12-25T06:15:46.726Z,8.99
2022-12-25T06:18:13.559Z,8.92
2022-12-25T06:20:41.956Z,8.89
2022-12-25T06:23:08.991Z,8.91
2022-12-25T06:25:39.312Z,9.02
2022-12-25T06:28:06.836Z,9.10
2022-12-25T06:30:34.357Z,9.17
2022-12-25T06:33:01.215Z,9.25
2022-12-25T06:35:28.151Z,9.32
2022-12-25T06:37:56.674Z,9.42
2022-12-25T06:40:23.585Z,9.49
2022-12-25T06:42:52.014Z,9.50
2022-12-25T06:45:18.891Z,9.52
2022-12-25T06:47:48.092Z,9.50
2022-12-25T06:50:15.089Z,9.51
2022-12-25T06:52:41.945Z,9.41
2022-12-25T06:55:10.335Z,9.33
2022-12-25T06:57:37.666Z,9.34
2022-12-25T07:00:06.572Z,9.38
2022-12-25T07:02:34.993Z,9.42
2022-12-25T07:05:04.248Z,9.49
2022-12-25T07:07:31.425Z,9.46
2022-12-25T07:09:58.280Z,9.53
2022-12-25T07:12:26.599Z,9.62
2022-12-25T07:14:55.206Z,9.68
2022-12-25T07:17:22.650Z,9.75
2022-12-25T07:19:49.982Z,9.78
2022-12-25T07:22:17.373Z,9.82
2022-12-25T07:24:44.518Z,9.83
2022-12-25T07:27:11.666Z,9.85
2022-12-25T07:29:39.853Z,9.89
2022-12-25T07:32:07.109Z,9.92
2022-12-25T07:34:33.997Z,9.87
2022-12-25T07:37:00.840Z,9.87
2022-12-25T07:39:27.766Z,9.89
2022-12-25T07:41:54.785Z,9.90
2022-12-25T07:44:21.656Z,9.92
2022-12-25T07:46:49.799Z,9.87
2022-12-25T07:49:16.921Z,9.87
2022-12-25T07:51:43.656Z,9.87
2022-12-25T07:54:10.795Z,9.96
2022-12-25T07:56:37.589Z,10.02
2022-12-25T07:59:04.474Z,10.05
2022-12-25T08:01:31.413Z,10.06
2022-12-25T08:04:01.984Z,10.10
2022-12-25T08:06:32.927Z,10.10
2022-12-25T08:09:06.086Z,10.12
2022-12-25T08:11:33.390Z,10.07
2022-12-25T08:14:00.463Z,10.09
2022-12-25T08:16:27.483Z,10.10
2022-12-25T08:18:54.591Z,10.09
2022-12-25T08:21:22.801Z,10.17
2022-12-25T08:23:49.710Z,10.24
2022-12-25T08:26:20.372Z,10.36
2022-12-25T08:28:48.843Z,10.46
2022-12-25T08:31:19.509Z,10.60
2022-12-25T08:33:48.035Z,10.76
2022-12-25T08:36:16.504Z,10.82
2022-12-25T08:38:45.622Z,10.91
2022-12-25T08:41:14.384Z,10.99
2022-12-25T08:43:41.499Z,11.13
2022-12-25T08:46:09.249Z,11.25
2022-12-25T08:48:36.901Z,11.29
2022-12-25T08:51:05.043Z,11.27
2022-12-25T08:53:31.802Z,11.35
2022-12-25T08:56:01.450Z,11.51
2022-12-25T08:58:28.726Z,11.95
2022-12-25T09:00:56.277Z,14.11
2022-12-25T09:03:23.862Z,15.83
2022-12-25T09:05:51.524Z,16.29
2022-12-25T09:08:18.661Z,17.75
2022-12-25T09:10:45.556Z,18.46
2022-12-25T09:13:13.963Z,18.86
2022-12-25T09:15:41.144Z,19.14
2022-12-25T09:18:08.116Z,19.98
2022-12-25T09:20:35.061Z,19.84
2022-12-25T09:23:02.401Z,20.82
2022-12-25T09:25:29.310Z,21.34
2022-12-25T09:27:56.956Z,20.83
2022-12-25T09:30:25.141Z,21.49
2022-12-25T09:32:52.238Z,20.79
2022-12-25T09:35:19.005Z,19.12
2022-12-25T09:37:46.068Z,17.56
2022-12-25T09:40:18.688Z,16.44
2022-12-25T09:42:48.312Z,16.60
2022-12-25T09:45:24.448Z,15.04
2022-12-25T09:47:57.002Z,15.03
2022-12-25T09:50:38.096Z,15.97
2022-12-25T09:53:12.791Z,16.12
2022-12-25T09:55:51.937Z,17.12
2022-12-25T09:58:19.093Z,16.24
2022-12-25T10:00:58.489Z,16.33
2022-12-25T10:03:59.169Z,16.70
2022-12-25T10:06:40.104Z,17.06
2022-12-25T10:09:30.054Z,18.08
2022-12-25T10:12:20.973Z,15.89
2022-12-25T10:15:18.303Z,19.03
2022-12-25T10:18:15.708Z,18.75
2022-12-25T10:20:52.454Z,18.82
2022-12-25T10:23:27.087Z,19.30
2022-12-25T10:25:56.526Z,18.03
2022-12-25T10:28:33.582Z,18.61
2022-12-25T10:31:18.316Z,18.61
2022-12-25T10:33:45.487Z,18.28
2022-12-25T10:36:17.923Z,17.38
2022-12-25T10:38:44.971Z,17.66
2022-12-25T10:41:29.428Z,18.53
2022-12-25T10:43:57.613Z,18.67
2022-12-25T10:46:28.820Z,19.13
2022-12-25T10:48:59.951Z,19.36
2022-12-25T10:51:32.096Z,19.52
2022-12-25T10:53:59.615Z,19.71
2022-12-25T10:56:26.411Z,17.93
2022-12-25T10:59:05.116Z,18.95
2022-12-25T11:01:32.405Z,20.29
2022-12-25T11:03:59.660Z,20.51
2022-12-25T11:06:31.877Z,19.74
2022-12-25T11:09:02.212Z,17.12
2022-12-25T11:11:30.375Z,16.50
2022-12-25T11:14:01.968Z,16.45
2022-12-25T11:16:36.570Z,16.45
2022-12-25T11:19:22.475Z,16.43
2022-12-25T11:21:54.612Z,16.31
2022-12-25T11:24:26.775Z,17.17
2022-12-25T11:26:57.323Z,17.58
2022-12-25T11:29:37.103Z,17.85
2022-12-25T11:32:12.744Z,17.64
2022-12-25T11:34:45.683Z,18.34
2022-12-25T11:37:20.136Z,17.95
2022-12-25T11:39:47.342Z,18.19
2022-12-25T11:42:22.595Z,17.88
2022-12-25T11:44:56.541Z,16.42
2022-12-25T11:47:34.928Z,17.05
2022-12-25T11:50:14.741Z,17.59
2022-12-25T11:52:48.048Z,17.29
2022-12-25T11:55:23.781Z,17.36
2022-12-25T11:57:57.110Z,16.84
2022-12-25T12:00:25.126Z,17.66
2022-12-25T12:03:01.260Z,17.66
2022-12-25T12:05:38.639Z,18.87
2022-12-25T12:08:09.300Z,19.65
2022-12-25T12:11:00.471Z,18.12
2022-12-25T12:13:40.984Z,18.64
2022-12-25T12:16:10.086Z,17.83
2022-12-25T12:18:37.960Z,18.04
2022-12-25T12:21:18.408Z,18.62
2022-12-25T12:23:54.561Z,18.54
2022-12-25T12:26:25.762Z,18.10
2022-12-25T12:28:56.793Z,17.24
2022-12-25T12:31:25.595Z,18.41
2022-12-25T12:33:56.393Z,17.60
2022-12-25T12:36:35.731Z,18.12
2022-12-25T12:39:05.601Z,19.49
2022-12-25T12:41:48.240Z,19.33
2022-12-25T12:44:17.526Z,18.19
2022-12-25T12:46:53.512Z,18.70
2022-12-25T12:49:24.604Z,17.34
2022-12-25T12:52:04.819Z,16.19
2022-12-25T12:54:46.519Z,15.50
2022-12-25T12:57:26.386Z,16.24
2022-12-25T12:59:53.337Z,17.04
2022-12-25T13:03:23.191Z,17.28
2022-12-25T13:05:57.834Z,17.15
2022-12-25T13:08:42.264Z,16.99
2022-12-25T13:11:19.938Z,17.04
2022-12-25T13:13:51.293Z,17.14
2022-12-25T13:16:26.956Z,16.86
2022-12-25T13:18:56.451Z,16.50
2022-12-25T13:21:26.547Z,16.30
2022-12-25T13:23:59.480Z,16.20
2022-12-25T13:26:29.767Z,15.78
2022-12-25T13:28:57.491Z,15.60
2022-12-25T13:31:27.283Z,15.48
2022-12-25T13:34:00.741Z,15.44
2022-12-25T13:36:30.844Z,15.49
2022-12-25T13:38:59.719Z,15.54
2022-12-25T13:41:41.506Z,15.60
2022-12-25T13:44:18.607Z,15.49
2022-12-25T13:46:45.959Z,15.69
2022-12-25T13:49:18.282Z,15.50
2022-12-25T13:51:46.504Z,15.38
2022-12-25T13:54:16.233Z,15.30
2022-12-25T13:56:51.602Z,15.65
2022-12-25T13:59:24.772Z,15.92
2022-12-25T14:01:53.182Z,15.48
2022-12-25T14:04:23.605Z,15.73
2022-12-25T14:06:52.161Z,16.10
2022-12-25T14:09:20.350Z,16.25
2022-12-25T14:11:53.003Z,16.01
2022-12-25T14:14:24.169Z,16.18
2022-12-25T14:16:56.437Z,16.14
2022-12-25T14:19:27.084Z,16.24
2022-12-25T14:22:01.099Z,16.21
2022-12-25T14:24:31.399Z,16.05
2022-12-25T14:27:04.420Z,15.81
2022-12-25T14:29:39.546Z,15.58
2022-12-25T14:32:13.813Z,15.42
2022-12-25T14:34:43.468Z,15.30
2022-12-25T14:37:17.869Z,15.19
2022-12-25T14:39:44.908Z,15.13
2022-12-25T14:42:21.602Z,15.13
2022-12-25T14:45:02.018Z,15.02
2022-12-25T14:47:31.237Z,14.90
2022-12-25T14:49:58.185Z,14.83
2022-12-25T14:52:29.565Z,14.76
2022-12-25T14:55:02.074Z,14.67
2022-12-25T14:57:37.512Z,14.61
2022-12-25T15:00:20.317Z,14.57
2022-12-25T15:02:57.460Z,14.52
2022-12-25T15:05:37.443Z,14.45
2022-12-25T15:08:23.609Z,14.35
2022-12-25T15:11:01.212Z,14.37
2022-12-25T15:13:31.893Z,14.28
2022-12-25T15:16:08.694Z,14.17
2022-12-25T15:18:41.425Z,14.12
2022-12-25T15:21:17.348Z,14.10
2022-12-25T15:23:44.610Z,14.00
2022-12-25T15:26:13.672Z,13.94
2022-12-25T15:28:42.212Z,13.94
2022-12-25T15:31:20.763Z,13.99
2022-12-25T15:33:47.814Z,14.00
2022-12-25T15:36:15.126Z,14.04
2022-12-25T15:38:42.005Z,14.00
2022-12-25T15:41:13.624Z,13.97
2022-12-25T15:43:45.463Z,13.96
2022-12-25T15:46:12.905Z,13.96
2022-12-25T15:48:39.789Z,13.90
2022-12-25T15:51:06.731Z,13.80
2022-12-25T15:53:33.639Z,13.78
2022-12-25T15:56:00.512Z,13.74
2022-12-25T15:58:27.604Z,13.67
2022-12-25T16:00:55.752Z,13.65
2022-12-25T16:03:22.607Z,13.42
2022-12-25T16:05:49.579Z,13.43
2022-12-25T16:08:16.443Z,13.46
2022-12-25T16:10:43.256Z,13.48
2022-12-25T16:13:09.980Z,13.45
2022-12-25T16:15:37.173Z,13.38
2022-12-25T16:18:06.803Z,13.33
2022-12-25T16:20:35.423Z,13.32
2022-12-25T16:23:02.240Z,13.30
2022-12-25T16:25:29.263Z,13.28
2022-12-25T16:27:56.381Z,13.12
2022-12-25T16:30:25.174Z,13.04
2022-12-25T16:32:52.334Z,13.09
2022-12-25T16:35:20.800Z,13.07
2022-12-25T16:37:55.188Z,12.99
2022-12-25T16:40:22.305Z,12.88
2022-12-25T16:42:49.801Z,12.87
2022-12-25T16:45:20.668Z,12.88
2022-12-25T16:47:47.575Z,12.91
2022-12-25T16:50:16.083Z,12.91
2022-12-25T16:52:44.634Z,12.88
2022-12-25T16:55:11.487Z,12.85
2022-12-25T16:57:38.652Z,12.82
2022-12-25T17:00:07.638Z,12.78
2022-12-25T17:02:34.692Z,12.68
2022-12-25T17:05:01.792Z,12.65
2022-12-25T17:07:28.660Z,12.52
2022-12-25T17:09:57.306Z,12.39
2022-12-25T17:12:24.191Z,12.29
2022-12-25T17:14:51.895Z,12.26
2022-12-25T17:17:18.701Z,12.25
2022-12-25T17:19:46.232Z,12.28
2022-12-25T17:22:13.328Z,12.29
2022-12-25T17:24:40.770Z,12.27
2022-12-25T17:27:09.179Z,12.23
2022-12-25T17:29:36.647Z,12.22
2022-12-25T17:32:03.423Z,12.25
2022-12-25T17:34:30.261Z,12.29
2022-12-25T17:36:57.208Z,12.30
2022-12-25T17:39:24.475Z,12.30
2022-12-25T17:41:51.513Z,12.24
2022-12-25T17:44:20.240Z,12.16
2022-12-25T17:46:47.951Z,12.06
2022-12-25T17:49:18.621Z,11.96
2022-12-25T17:51:46.511Z,11.84
2022-12-25T17:54:14.085Z,11.82
2022-12-25T17:56:41.145Z,11.73
2022-12-25T17:59:08.061Z,11.69
2022-12-25T18:01:39.159Z,11.64
2022-12-25T18:04:06.745Z,11.61
2022-12-25T18:06:36.112Z,11.49
2022-12-25T18:09:04.530Z,11.54
2022-12-25T18:11:31.308Z,11.44
2022-12-25T18:14:02.635Z,11.41
2022-12-25T18:16:33.528Z,11.37
2022-12-25T18:19:02.950Z,11.31
2022-12-25T18:21:30.451Z,11.29
2022-12-25T18:23:57.911Z,11.22
2022-12-25T18:26:25.008Z,11.19
2022-12-25T18:28:51.911Z,10.99
2022-12-25T18:31:24.305Z,10.90
2022-12-25T18:33:56.185Z,10.91
2022-12-25T18:36:27.981Z,10.82
2022-12-25T18:38:56.660Z,10.77
2022-12-25T18:41:24.155Z,10.85
2022-12-25T18:43:55.259Z,10.87
2022-12-25T18:46:25.341Z,10.87
2022-12-25T18:48:53.861Z,10.88
2022-12-25T18:51:20.804Z,10.83
2022-12-25T18:53:49.451Z,10.72
2022-12-25T18:56:18.268Z,10.67
2022-12-25T18:58:46.316Z,10.56
2022-12-25T19:01:17.638Z,10.56
2022-12-25T19:03:45.389Z,10.60
2022-12-25T19:06:17.750Z,10.65
2022-12-25T19:08:44.932Z,10.66
2022-12-25T19:11:14.824Z,10.35
2022-12-25T19:13:41.942Z,10.45
2022-12-25T19:16:09.134Z,10.48
2022-12-25T19:18:36.390Z,10.42
2022-12-25T19:21:05.619Z,10.49
2022-12-25T19:23:32.921Z,10.61
2022-12-25T19:26:00.709Z,10.64
2022-12-25T19:28:29.380Z,10.63
2022-12-25T19:30:59.831Z,10.34
2022-12-25T19:33:27.716Z,10.37
2022-12-25T19:36:00.356Z,10.31
2022-12-25T19:38:29.096Z,10.39
2022-12-25T19:40:56.369Z,10.42
2022-12-25T19:43:23.226Z,10.41
2022-12-25T19:45:52.043Z,10.52
2022-12-25T19:48:18.840Z,10.55
2022-12-25T19:50:45.979Z,10.58
2022-12-25T19:53:13.194Z,10.54
2022-12-25T19:55:40.021Z,10.75
2022-12-25T19:58:06.810Z,10.77
2022-12-25T20:00:33.585Z,11.03
2022-12-25T20:03:02.034Z,11.06
2022-12-25T20:05:29.231Z,11.04
2022-12-25T20:07:56.161Z,11.22
2022-12-25T20:10:23.651Z,11.20
2022-12-25T20:12:51.606Z,11.18
2022-12-25T20:15:19.419Z,11.25
2022-12-25T20:17:46.906Z,11.29
2022-12-25T20:20:15.397Z,11.28
2022-12-25T20:22:42.236Z,11.59
2022-12-25T20:25:09.580Z,11.67
2022-12-25T20:27:36.898Z,11.56
2022-12-25T20:30:05.282Z,11.44
2022-12-25T20:32:32.082Z,11.40
2022-12-25T20:34:59.165Z,11.34
2022-12-25T20:37:27.280Z,11.35
2022-12-25T20:39:54.346Z,11.38
2022-12-25T20:42:21.250Z,11.48
2022-12-25T20:44:48.734Z,11.39
2022-12-25T20:47:15.812Z,11.42
2022-12-25T20:49:42.716Z,11.42
2022-12-25T20:52:09.705Z,11.43
2022-12-25T20:54:37.841Z,11.44
2022-12-25T20:57:04.710Z,11.68
2022-12-25T20:59:37.181Z,11.67
2022-12-25T21:02:04.872Z,11.64
2022-12-25T21:04:31.938Z,11.59
2022-12-25T21:06:58.822Z,11.58
2022-12-25T21:09:25.967Z,11.58
2022-12-25T21:11:54.239Z,11.58
2022-12-25T21:14:21.203Z,11.57
2022-12-25T21:16:48.170Z,11.50
2022-12-25T21:19:15.347Z,11.44
2022-12-25T21:21:42.340Z,11.40
2022-12-25T21:24:10.198Z,11.40
2022-12-25T21:26:40.759Z,11.41
2022-12-25T21:29:12.035Z,11.41
2022-12-25T21:31:39.092Z,11.41
2022-12-25T21:34:05.946Z,11.43
2022-12-25T21:36:34.584Z,11.46
2022-12-25T21:39:05.181Z,11.39
2022-12-25T21:41:34.173Z,11.35
2022-12-25T21:44:01.551Z,11.34
2022-12-25T21:46:30.266Z,11.36
2022-12-25T21:48:58.826Z,11.37
2022-12-25T21:51:28.765Z,11.28
2022-12-25T21:53:56.048Z,11.31
2022-12-25T21:56:23.570Z,11.36
2022-12-25T21:58:50.419Z,11.40
2022-12-25T22:01:17.897Z,11.42
2022-12-25T22:03:46.428Z,11.39
2022-12-25T22:06:19.288Z,11.38
2022-12-25T22:08:48.087Z,11.38
2022-12-25T22:11:14.996Z,11.33
2022-12-25T22:13:42.180Z,11.37
2022-12-25T22:16:09.019Z,11.39
2022-12-25T22:18:36.360Z,11.42
2022-12-25T22:21:04.538Z,11.52
2022-12-25T22:23:31.387Z,11.55
2022-12-25T22:25:58.252Z,11.66
2022-12-25T22:28:25.310Z,12.01
2022-12-25T22:30:52.581Z,12.03
2022-12-25T22:33:19.362Z,12.18
2022-12-25T22:35:46.461Z,12.11
2022-12-25T22:38:14.601Z,12.22
2022-12-25T22:40:41.454Z,12.20
2022-12-25T22:43:08.300Z,12.15
2022-12-25T22:45:35.118Z,12.14
2022-12-25T22:48:01.962Z,12.10
2022-12-25T22:50:28.803Z,12.06
2022-12-25T22:52:55.632Z,12.09
2022-12-25T22:55:24.125Z,12.05
2022-12-25T22:57:50.896Z,12.08
2022-12-25T23:00:17.924Z,12.06
2022-12-25T23:02:44.843Z,12.03
2022-12-25T23:05:12.056Z,12.03
2022-12-25T23:07:38.887Z,11.97
2022-12-25T23:10:07.466Z,12.00
2022-12-25T23:12:35.671Z,11.97
2022-12-25T23:15:03.312Z,11.96
2022-12-25T23:17:30.439Z,11.92
2022-12-25T23:20:00.035Z,11.94
2022-12-25T23:22:26.876Z,11.90
2022-12-25T23:24:53.840Z,11.83
2022-12-25T23:27:20.814Z,11.79
2022-12-25T23:29:48.891Z,11.77
2022-12-25T23:32:20.213Z,11.80
2022-12-25T23:34:47.475Z,11.79
2022-12-25T23:37:14.840Z,11.75
2022-12-25T23:39:41.819Z,11.71
2022-12-25T23:42:08.812Z,11.69
2022-12-25T23:44:36.102Z,11.66
2022-12-25T23:47:04.863Z,11.61
2022-12-25T23:49:32.204Z,11.59
2022-12-25T23:51:59.071Z,11.57
2022-12-25T23:54:30.610Z,11.54
2022-12-25T23:56:58.807Z,11.56
2022-12-25T23:59:27.648Z,11.57
